Time;durP1;ratioP1;P1;durP2;ratioP2;P2;SDS_P1;SDS_P2;PMS_P1;PMS_P2;Temp;Humidity;BMP_temperature;BMP_pressure;BME280_temperature;BME280_humidity;BME280_pressure;Samples;Min_cycle;Max_cycle;Signal;HPM_P1;HPM_P2
2022/05/27 00:00:42;;;;;;;11.65;4.70;;;17.10;99.90;;;;;;4994770;28;93121;-73
2022/05/27 00:03:11;;;;;;;10.45;5.45;;;17.00;99.90;;;;;;4978632;28;92530;-73
2022/05/27 00:05:51;;;;;;;12.50;5.47;;;17.00;99.90;;;;;;4978199;28;92447;-73
2022/05/27 00:08:18;;;;;;;14.98;5.68;;;17.00;99.90;;;;;;4977590;28;95240;-73
2022/05/27 00:10:45;;;;;;;12.38;4.57;;;17.00;99.90;;;;;;4996336;28;92958;-73
2022/05/27 00:13:12;;;;;;;10.90;4.75;;;17.00;99.90;;;;;;4978646;28;92466;-73
2022/05/27 00:15:39;;;;;;;10.98;3.92;;;16.90;99.90;;;;;;4994634;28;92583;-73
2022/05/27 00:18:06;;;;;;;11.90;4.30;;;16.90;99.90;;;;;;4994784;28;95662;-73
2022/05/27 00:20:34;;;;;;;12.48;3.80;;;16.90;99.90;;;;;;4995666;28;95305;-73
2022/05/27 00:23:01;;;;;;;9.80;5.45;;;16.90;99.90;;;;;;4978132;28;92397;-73
2022/05/27 00:25:28;;;;;;;10.70;3.50;;;16.80;99.90;;;;;;4977517;28;100498;-73
2022/05/27 00:27:57;;;;;;;8.57;3.67;;;16.80;99.90;;;;;;4977445;28;95913;-73
2022/05/27 00:30:24;;;;;;;9.73;4.70;;;16.80;99.90;;;;;;4977836;28;93020;-73
2022/05/27 00:32:52;;;;;;;8.75;3.60;;;16.80;99.90;;;;;;4977572;28;92492;-72
2022/05/27 00:35:19;;;;;;;8.80;3.95;;;16.80;99.90;;;;;;4996412;28;91679;-73
2022/05/27 00:37:46;;;;;;;9.32;4.43;;;16.70;99.90;;;;;;4977371;28;94476;-73
2022/05/27 00:40:15;;;;;;;14.55;4.20;;;16.70;99.90;;;;;;4977619;28;95368;-73
2022/05/27 00:42:43;;;;;;;11.90;4.38;;;16.70;99.90;;;;;;4994053;28;94861;-73
2022/05/27 00:45:25;;;;;;;12.55;4.22;;;16.60;99.90;;;;;;4977715;28;92540;-73
2022/05/27 00:47:56;;;;;;;9.60;4.55;;;16.60;99.90;;;;;;4995442;28;93304;-73
2022/05/27 00:50:36;;;;;;;12.20;4.47;;;16.50;99.90;;;;;;4977297;28;95593;-73
2022/05/27 00:53:05;;;;;;;10.57;4.47;;;16.60;99.90;;;;;;4995538;28;92389;-73
2022/05/27 00:55:41;;;;;;;12.55;4.50;;;16.50;99.90;;;;;;4977952;28;92512;-73
2022/05/27 00:58:38;;;;;;;13.00;4.95;;;16.50;99.90;;;;;;4977314;28;94262;-73
2022/05/27 01:01:05;;;;;;;10.80;3.90;;;16.50;99.90;;;;;;4987719;28;92899;-73
2022/05/27 01:03:33;;;;;;;11.57;6.78;;;16.40;99.90;;;;;;4977645;28;92558;-73
2022/05/27 01:06:00;;;;;;;16.48;4.78;;;16.40;99.90;;;;;;4977338;28;92515;-73
2022/05/27 01:08:29;;;;;;;12.50;4.60;;;16.40;99.90;;;;;;4959798;28;98226;-73
2022/05/27 01:11:17;;;;;;;15.05;4.65;;;16.40;99.90;;;;;;4995062;28;95276;-73
2022/05/27 01:14:14;;;;;;;9.27;3.83;;;16.50;99.90;;;;;;4995405;28;92463;-73
2022/05/27 01:16:44;;;;;;;10.13;4.45;;;16.40;99.90;;;;;;4995449;28;93024;-73
2022/05/27 01:22:40;;;;;;;13.73;4.90;;;16.30;99.90;;;;;;4998834;28;93022;-73
2022/05/27 01:25:29;;;;;;;12.00;4.88;;;16.10;99.90;;;;;;4999130;28;92417;-73
2022/05/27 01:28:14;;;;;;;10.75;5.18;;;16.00;99.90;;;;;;4981363;28;91713;-73
2022/05/27 01:30:59;;;;;;;9.10;4.68;;;16.00;99.90;;;;;;4998082;28;93601;-73
2022/05/27 01:33:44;;;;;;;11.40;4.68;;;16.00;99.90;;;;;;4999015;28;92840;-73
2022/05/27 01:36:35;;;;;;;11.82;4.30;;;15.90;99.90;;;;;;4979859;28;94852;-73
2022/05/27 01:39:08;;;;;;;12.02;4.30;;;15.80;99.90;;;;;;4980576;28;92559;-73
2022/05/27 01:41:51;;;;;;;12.60;4.53;;;15.70;99.90;;;;;;4998646;28;94194;-73
2022/05/27 01:44:27;;;;;;;13.27;5.47;;;15.70;99.90;;;;;;4980461;28;95608;-73
2022/05/27 01:46:54;;;;;;;10.95;4.93;;;15.60;99.90;;;;;;4980406;28;92488;-73
2022/05/27 01:49:29;;;;;;;11.13;4.18;;;15.50;99.90;;;;;;4980712;28;92705;-73
2022/05/27 01:52:06;;;;;;;13.55;4.65;;;15.60;99.90;;;;;;4998155;28;93193;-72
2022/05/27 01:54:42;;;;;;;11.35;5.70;;;15.60;99.90;;;;;;4998546;28;92907;-73
2022/05/27 01:57:15;;;;;;;16.08;5.18;;;15.50;99.90;;;;;;4981000;28;92816;-73
2022/05/27 01:59:48;;;;;;;7.90;4.30;;;15.60;99.90;;;;;;4980571;28;92478;-73
2022/05/27 02:02:19;;;;;;;10.85;4.80;;;15.60;99.90;;;;;;4978581;28;98255;-73
2022/05/27 02:04:58;;;;;;;11.98;4.53;;;15.50;99.90;;;;;;4980223;28;95578;-72
2022/05/27 02:07:48;;;;;;;12.00;4.97;;;15.60;99.90;;;;;;4998340;28;92518;-73
2022/05/27 02:10:48;;;;;;;14.45;5.82;;;15.50;99.90;;;;;;4998041;28;92438;-72
2022/05/27 02:13:34;;;;;;;15.13;5.90;;;15.50;99.90;;;;;;4998247;28;93106;-73
2022/05/27 02:16:04;;;;;;;13.45;4.90;;;15.50;99.90;;;;;;4979545;28;95982;-72
2022/05/27 02:18:34;;;;;;;12.77;4.60;;;15.40;99.90;;;;;;4980148;28;92466;-72
2022/05/27 02:21:06;;;;;;;14.73;4.55;;;15.40;99.90;;;;;;4998437;28;92038;-73
2022/05/27 02:23:48;;;;;;;13.98;4.70;;;15.40;99.90;;;;;;4979639;28;95967;-73
2022/05/27 02:26:19;;;;;;;11.60;4.47;;;15.40;99.90;;;;;;4997862;28;92414;-73
2022/05/27 02:28:52;;;;;;;15.27;4.63;;;15.40;99.90;;;;;;4995142;28;94965;-72
2022/05/27 02:31:22;;;;;;;16.02;4.20;;;15.40;99.90;;;;;;4978935;28;92452;-73
2022/05/27 02:37:08;;;;;;;15.55;4.95;;;15.30;99.90;;;;;;4997640;28;92974;-72
2022/05/27 02:39:36;;;;;;;18.27;4.25;;;15.20;99.90;;;;;;4979224;28;92554;-72
2022/05/27 02:42:18;;;;;;;18.33;4.88;;;15.10;99.90;;;;;;4979468;28;92550;-72
2022/05/27 02:45:17;;;;;;;12.50;3.83;;;15.10;99.90;;;;;;4979509;28;95753;-73
2022/05/27 02:48:04;;;;;;;12.00;4.20;;;15.10;99.90;;;;;;4979283;28;97202;-73
2022/05/27 02:50:51;;;;;;;13.45;4.15;;;15.00;99.90;;;;;;4997639;28;92361;-73
2022/05/27 02:53:34;;;;;;;14.68;4.20;;;14.90;99.90;;;;;;4997406;28;92334;-73
2022/05/27 02:56:16;;;;;;;14.03;4.33;;;14.90;99.90;;;;;;4978255;28;96823;-73
2022/05/27 02:58:43;;;;;;;10.13;3.60;;;14.90;99.90;;;;;;4979182;28;97889;-72
2022/05/27 03:01:10;;;;;;;12.70;4.40;;;14.80;99.90;;;;;;4981165;28;92497;-73
2022/05/27 03:03:37;;;;;;;12.80;3.50;;;14.80;99.90;;;;;;4979213;28;92447;-73
2022/05/27 03:06:10;;;;;;;13.82;4.65;;;14.80;99.90;;;;;;4978375;28;95445;-72
2022/05/27 03:08:51;;;;;;;14.25;4.63;;;14.80;99.90;;;;;;4979267;28;92501;-73
2022/05/27 03:11:49;;;;;;;14.55;4.25;;;14.80;99.90;;;;;;4997383;28;92397;-73
2022/05/27 03:14:30;;;;;;;11.80;3.60;;;14.70;99.90;;;;;;4997240;28;91730;-72
2022/05/27 03:17:04;;;;;;;10.23;4.13;;;14.70;99.90;;;;;;4996627;28;94210;-72
2022/05/27 03:19:55;;;;;;;12.73;4.18;;;14.60;99.90;;;;;;4997096;28;92841;-72
2022/05/27 03:22:43;;;;;;;17.95;4.93;;;14.60;99.90;;;;;;4996172;28;94898;-72
2022/05/27 03:25:41;;;;;;;14.65;3.80;;;14.50;99.90;;;;;;4997030;28;92950;-72
2022/05/27 03:28:28;;;;;;;9.38;4.07;;;14.60;99.90;;;;;;4978480;28;99132;-73
2022/05/27 03:31:07;;;;;;;11.48;4.10;;;14.60;99.90;;;;;;4996699;28;92903;-73
2022/05/27 03:33:39;;;;;;;12.85;4.80;;;14.60;99.90;;;;;;4978838;28;92482;-73
2022/05/27 03:36:15;;;;;;;15.23;3.33;;;14.60;99.90;;;;;;4996855;28;92385;-73
2022/05/27 03:39:02;;;;;;;14.70;4.88;;;14.60;99.90;;;;;;4996769;28;93316;-73
2022/05/27 03:41:34;;;;;;;13.10;4.70;;;14.60;99.90;;;;;;4997242;28;93102;-73
2022/05/27 03:44:02;;;;;;;11.50;3.50;;;14.60;99.90;;;;;;4960850;28;92501;-73
2022/05/27 03:46:32;;;;;;;10.90;4.22;;;14.60;99.90;;;;;;4962469;28;92449;-73
2022/05/27 03:49:00;;;;;;;11.45;3.30;;;14.70;99.90;;;;;;4977025;28;98172;-73
2022/05/27 03:51:31;;;;;;;12.63;4.45;;;14.70;99.90;;;;;;4996328;28;95452;-73
2022/05/27 03:54:03;;;;;;;12.02;4.03;;;14.80;99.90;;;;;;4975020;28;92481;-73
2022/05/27 03:56:35;;;;;;;11.40;3.78;;;14.90;99.90;;;;;;4976586;28;92475;-73
2022/05/27 03:59:04;;;;;;;12.27;4.53;;;15.10;99.90;;;;;;4976191;28;92459;-73
2022/05/27 04:01:33;;;;;;;10.18;3.10;;;15.40;99.90;;;;;;4976383;28;92903;-73
2022/05/27 04:04:02;;;;;;;11.25;3.60;;;15.70;99.90;;;;;;4975148;28;92463;-73
2022/05/27 04:06:29;;;;;;;15.23;3.80;;;15.90;99.90;;;;;;4976835;28;91683;-73
2022/05/27 04:08:59;;;;;;;9.90;3.60;;;16.10;99.90;;;;;;4958594;28;95804;-73
2022/05/27 04:11:27;;;;;;;14.60;5.45;;;16.20;99.90;;;;;;4976180;28;92933;-73
2022/05/27 04:13:54;;;;;;;10.00;3.88;;;16.20;99.90;;;;;;4957772;28;94881;-73
2022/05/27 04:16:21;;;;;;;8.38;3.17;;;16.20;99.90;;;;;;4975339;28;93634;-73
2022/05/27 04:18:48;;;;;;;11.82;4.15;;;16.20;99.90;;;;;;4974742;28;96007;-73
2022/05/27 04:21:16;;;;;;;10.70;4.82;;;16.30;99.90;;;;;;4975491;28;105513;-73
2022/05/27 04:23:43;;;;;;;11.05;3.42;;;16.30;99.90;;;;;;4974554;28;92437;-73
2022/05/27 04:26:11;;;;;;;11.23;3.33;;;16.30;99.90;;;;;;4976005;28;92473;-73
2022/05/27 04:28:38;;;;;;;12.63;3.95;;;16.20;99.90;;;;;;4975987;28;93161;-73
2022/05/27 04:31:05;;;;;;;11.23;3.38;;;16.20;99.90;;;;;;4976085;28;93149;-73
2022/05/27 04:33:32;;;;;;;12.35;3.20;;;16.20;99.90;;;;;;4975004;28;92401;-73
2022/05/27 04:36:00;;;;;;;8.77;3.28;;;16.10;99.90;;;;;;4974865;28;92449;-73
2022/05/27 04:38:28;;;;;;;9.70;3.05;;;16.10;99.90;;;;;;4973004;28;95478;-73
2022/05/27 04:40:55;;;;;;;8.93;3.55;;;16.00;99.90;;;;;;4925936;28;97858;-73
2022/05/27 04:43:22;;;;;;;8.98;3.08;;;16.00;99.90;;;;;;4975867;28;92342;-72
2022/05/27 04:45:49;;;;;;;8.88;2.60;;;16.00;99.90;;;;;;4974462;28;92497;-73
2022/05/27 04:48:18;;;;;;;12.07;3.13;;;16.00;99.90;;;;;;4974359;28;93425;-72
2022/05/27 04:50:45;;;;;;;13.60;4.10;;;16.10;99.80;;;;;;4974292;28;92464;-72
2022/05/27 04:53:13;;;;;;;8.90;2.97;;;16.10;99.80;;;;;;4976779;28;92586;-73
2022/05/27 04:55:41;;;;;;;10.05;2.60;;;16.10;99.80;;;;;;4977623;28;93234;-72
2022/05/27 04:58:11;;;;;;;12.25;3.20;;;16.20;99.80;;;;;;4977288;28;97988;-73
2022/05/27 05:00:44;;;;;;;13.30;3.47;;;16.20;99.80;;;;;;4977117;28;95591;-72
2022/05/27 05:03:12;;;;;;;;;;;16.20;99.60;;;;;;4994827;28;94925;-73
2022/05/27 05:05:39;;;;;;;11.25;2.60;;;16.00;99.70;;;;;;4978798;28;92565;-73
2022/05/27 05:08:13;;;;;;;12.93;2.72;;;16.10;99.90;;;;;;4995425;28;93311;-73
2022/05/27 05:10:39;;;;;;;11.85;4.38;;;16.20;99.90;;;;;;4995262;28;92951;-73
2022/05/27 05:13:07;;;;;;;15.55;4.32;;;16.00;99.90;;;;;;4977980;28;92663;-73
2022/05/27 05:15:34;;;;;;;10.52;3.47;;;16.00;99.90;;;;;;4977224;28;92611;-72
2022/05/27 05:18:00;;;;;;;12.32;3.05;;;16.00;99.90;;;;;;4976863;28;109033;-73
2022/05/27 05:20:30;;;;;;;12.18;4.50;;;15.90;99.90;;;;;;4995383;28;93071;-73
2022/05/27 05:22:57;;;;;;;8.57;2.58;;;16.00;99.90;;;;;;4995189;28;92772;-73
2022/05/27 05:25:25;;;;;;;15.50;4.03;;;16.00;99.90;;;;;;4977517;28;92589;-73
2022/05/27 05:27:52;;;;;;;13.07;3.67;;;16.00;99.80;;;;;;4993621;28;95638;-73
2022/05/27 05:30:22;;;;;;;13.13;3.30;;;16.10;99.80;;;;;;4994600;28;95997;-73
2022/05/27 05:32:49;;;;;;;12.45;3.08;;;16.00;99.70;;;;;;4995033;28;92451;-73
2022/05/27 05:35:16;;;;;;;9.80;2.70;;;16.10;99.70;;;;;;4994910;28;92925;-73
2022/05/27 05:37:43;;;;;;;13.52;4.20;;;16.20;99.20;;;;;;4977085;28;94598;-73
2022/05/27 05:40:12;;;;;;;11.93;2.80;;;16.40;99.30;;;;;;4994960;28;93047;-73
2022/05/27 05:42:40;;;;;;;14.00;3.55;;;16.50;99.10;;;;;;4994953;28;92472;-73
2022/05/27 05:45:09;;;;;;;9.88;2.80;;;16.70;98.70;;;;;;4994973;28;91626;-73
2022/05/27 05:47:36;;;;;;;10.10;3.60;;;16.90;98.10;;;;;;4976645;28;94220;-73
2022/05/27 05:50:03;;;;;;;9.65;3.13;;;17.00;97.70;;;;;;4976471;28;95684;-73
2022/05/27 05:52:30;;;;;;;9.27;2.97;;;17.10;97.30;;;;;;4975923;28;94902;-73
2022/05/27 05:54:57;;;;;;;6.43;2.38;;;17.20;96.70;;;;;;4976884;28;92846;-73
2022/05/27 05:57:25;;;;;;;10.95;3.80;;;17.30;96.60;;;;;;4994284;28;93794;-73
2022/05/27 05:59:52;;;;;;;11.48;2.80;;;17.40;96.40;;;;;;4977175;28;92970;-73
2022/05/27 06:02:18;;;;;;;15.57;3.10;;;17.40;95.80;;;;;;4976751;28;92482;-73
2022/05/27 06:04:45;;;;;;;10.38;2.50;;;17.50;95.60;;;;;;4995044;28;92891;-73
2022/05/27 06:07:13;;;;;;;9.63;3.22;;;17.60;95.60;;;;;;4979317;28;93213;-73
2022/05/27 06:09:41;;;;;;;9.95;3.35;;;17.70;95.10;;;;;;4979749;28;105011;-73
2022/05/27 06:12:09;;;;;;;8.63;2.55;;;17.70;94.70;;;;;;4963375;28;92520;-73
2022/05/27 06:14:36;;;;;;;8.52;2.92;;;17.60;94.50;;;;;;4998000;28;92477;-72
2022/05/27 06:17:04;;;;;;;5.88;2.30;;;17.60;94.90;;;;;;4978508;28;98028;-73
2022/05/27 06:19:31;;;;;;;6.32;3.92;;;17.60;94.50;;;;;;4979909;28;95238;-73
2022/05/27 06:21:58;;;;;;;11.43;3.42;;;17.70;94.50;;;;;;4998019;28;92445;-73
2022/05/27 06:24:25;;;;;;;9.85;3.05;;;17.80;93.90;;;;;;4979809;28;92457;-73
2022/05/27 06:26:52;;;;;;;12.43;2.88;;;17.80;93.40;;;;;;4979703;28;95696;-73
2022/05/27 06:34:49;;;;;;;14.70;2.83;;;17.60;92.50;;;;;;4980323;28;92116;-73
2022/05/27 06:37:19;;;;;;;10.52;4.05;;;17.70;92.30;;;;;;4979442;28;93202;-73
2022/05/27 06:39:46;;;;;;;11.65;2.60;;;17.70;92.20;;;;;;4979497;28;95720;-73
2022/05/27 06:42:15;;;;;;;11.32;3.53;;;17.70;92.30;;;;;;4978432;28;94961;-73
2022/05/27 06:45:02;;;;;;;13.10;3.22;;;17.80;91.80;;;;;;4966024;28;92863;-73
2022/05/27 06:47:29;;;;;;;15.75;5.20;;;17.80;91.00;;;;;;4963051;28;95822;-73
2022/05/27 06:49:56;;;;;;;13.00;3.53;;;17.80;90.90;;;;;;4997148;28;93391;-73
2022/05/27 06:52:24;;;;;;;15.07;3.47;;;17.90;91.40;;;;;;4997327;28;92451;-73
2022/05/27 06:54:51;;;;;;;12.98;3.78;;;17.80;90.90;;;;;;4996649;28;92537;-73
2022/05/27 06:57:19;;;;;;;9.90;2.70;;;17.80;89.90;;;;;;4997356;28;96151;-73
2022/05/27 06:59:46;;;;;;;9.20;3.08;;;17.70;90.60;;;;;;4997349;28;93071;-73
2022/05/27 07:02:13;;;;;;;11.02;3.03;;;17.80;91.10;;;;;;4979882;28;92900;-73
2022/05/27 07:04:40;;;;;;;7.97;3.28;;;17.90;90.60;;;;;;4997111;28;92405;-73
2022/05/27 07:07:07;;;;;;;12.90;4.65;;;17.70;89.30;;;;;;4945783;28;95720;-73
2022/05/27 07:09:37;;;;;;;10.43;3.03;;;17.80;90.00;;;;;;4996745;28;95439;-73
2022/05/27 07:12:07;;;;;;;10.57;3.25;;;17.90;88.80;;;;;;4995788;28;92465;-73
2022/05/27 07:14:36;;;;;;;14.95;3.53;;;18.10;88.40;;;;;;4997128;28;92455;-73
2022/05/27 07:17:04;;;;;;;10.43;3.67;;;18.20;86.80;;;;;;4978878;28;93246;-73
2022/05/27 07:19:37;;;;;;;11.80;4.15;;;18.20;85.40;;;;;;4964268;28;93445;-73
2022/05/27 07:22:06;;;;;;;6.80;2.25;;;18.10;84.30;;;;;;4996998;28;92791;-73
2022/05/27 07:24:33;;;;;;;9.07;2.75;;;17.90;81.30;;;;;;4996936;28;91683;-73
2022/05/27 07:27:00;;;;;;;9.35;2.67;;;17.80;80.60;;;;;;4996691;28;93276;-73
2022/05/27 07:29:27;;;;;;;7.90;3.83;;;17.70;80.60;;;;;;4962508;28;93014;-73
2022/05/27 07:31:54;;;;;;;8.23;2.50;;;17.70;80.90;;;;;;4995492;28;95251;-73
2022/05/27 07:34:22;;;;;;;8.02;2.97;;;17.80;81.40;;;;;;4979258;28;92515;-73
2022/05/27 07:36:48;;;;;;;9.45;2.50;;;17.90;81.80;;;;;;4996683;28;93109;-73
2022/05/27 07:39:15;;;;;;;10.90;3.25;;;18.20;80.00;;;;;;4978879;28;93053;-73
2022/05/27 07:41:42;;;;;;;8.43;3.55;;;18.30;78.50;;;;;;4996603;28;92435;-72
2022/05/27 07:44:09;;;;;;;9.50;2.72;;;18.20;77.40;;;;;;4996357;28;93374;-72
2022/05/27 07:46:39;;;;;;;9.13;2.80;;;18.40;78.50;;;;;;4996281;28;93371;-72
2022/05/27 07:49:07;;;;;;;6.65;3.03;;;18.50;76.00;;;;;;4996715;28;93006;-72
2022/05/27 07:51:54;;;;;;;8.02;3.40;;;18.60;76.20;;;;;;4981804;28;92889;-72
2022/05/27 07:54:21;;;;;;;8.13;2.65;;;18.70;75.80;;;;;;4995264;28;92534;-72
2022/05/27 07:56:49;;;;;;;9.05;3.50;;;18.70;73.70;;;;;;4976826;28;98621;-72
2022/05/27 07:59:16;;;;;;;6.22;2.80;;;18.70;74.10;;;;;;4996466;28;95452;-72
2022/05/27 08:01:43;;;;;;;6.88;2.67;;;18.70;73.40;;;;;;4978388;28;92466;-72
2022/05/27 08:04:09;;;;;;;8.57;3.83;;;19.10;73.40;;;;;;4978404;28;92457;-72
2022/05/27 08:06:37;;;;;;;8.30;3.08;;;19.70;71.50;;;;;;4996023;28;95046;-72
2022/05/27 08:09:10;;;;;;;8.32;3.25;;;20.30;69.50;;;;;;4979045;28;95742;-72
2022/05/27 08:11:59;;;;;;;6.32;4.05;;;20.70;68.00;;;;;;4978172;28;92607;-72
2022/05/27 08:14:42;;;;;;;7.68;3.00;;;21.40;66.90;;;;;;4964483;28;92608;-72
2022/05/27 08:17:09;;;;;;;6.80;2.88;;;21.70;63.40;;;;;;4996087;28;93025;-73
2022/05/27 08:19:36;;;;;;;8.25;3.42;;;22.50;64.30;;;;;;4977683;28;95541;-72
2022/05/27 08:22:04;;;;;;;10.05;3.72;;;23.00;62.70;;;;;;4995188;28;95406;-73
2022/05/27 08:24:31;;;;;;;7.70;3.80;;;23.40;60.20;;;;;;4961686;28;92501;-73
2022/05/27 08:26:58;;;;;;;7.15;2.92;;;23.50;60.40;;;;;;4977628;28;95914;-73
2022/05/27 08:29:27;;;;;;;8.48;3.33;;;23.70;58.30;;;;;;4994988;28;92853;-73
2022/05/27 08:31:54;;;;;;;7.10;2.70;;;24.00;58.10;;;;;;4977421;28;92522;-73
2022/05/27 08:39:52;;;;;;;8.93;3.30;;;24.60;53.90;;;;;;4996022;28;93057;-73
2022/05/27 08:42:35;;;;;;;8.95;3.30;;;24.50;54.60;;;;;;4977575;28;92648;-73
2022/05/27 08:45:26;;;;;;;7.72;4.75;;;24.90;53.40;;;;;;4977766;28;92866;-73
2022/05/27 08:47:56;;;;;;;9.48;3.50;;;25.30;52.30;;;;;;4994105;28;96197;-73
2022/05/27 08:50:32;;;;;;;11.98;4.18;;;25.50;51.80;;;;;;4978082;28;94572;-73
2022/05/27 08:53:36;;;;;;;7.00;3.38;;;25.70;52.10;;;;;;4977543;28;92563;-73
2022/05/27 08:59:31;;;;;;;10.23;2.85;;;25.30;52.40;;;;;;4955881;28;93289;-73
2022/05/27 09:02:22;;;;;;;9.02;2.53;;;24.80;53.00;;;;;;4955940;28;93180;-73
2022/05/27 09:05:15;;;;;;;9.63;2.95;;;24.30;53.30;;;;;;4956062;28;92445;-73
2022/05/27 09:07:47;;;;;;;7.93;3.90;;;24.00;53.80;;;;;;4956412;28;92143;-73
2022/05/27 09:10:21;;;;;;;7.78;3.00;;;23.70;56.50;;;;;;4954514;28;95937;-73
2022/05/27 09:13:15;;;;;;;10.00;2.78;;;23.30;54.90;;;;;;4955789;28;95260;-73
2022/05/27 09:16:25;;;;;;;9.10;3.00;;;23.10;55.30;;;;;;4954914;28;94879;-72
2022/05/27 09:19:01;;;;;;;7.53;3.33;;;22.50;56.40;;;;;;4936613;28;92537;-73
2022/05/27 09:22:13;;;;;;;8.10;3.33;;;22.10;57.30;;;;;;4954259;28;95784;-73
2022/05/27 09:25:09;;;;;;;9.45;3.50;;;21.60;56.50;;;;;;4936828;28;93221;-72
2022/05/27 09:27:40;;;;;;;10.50;3.00;;;21.30;58.30;;;;;;4954466;28;92457;-72
2022/05/27 09:30:11;;;;;;;8.60;2.83;;;21.10;59.10;;;;;;4954506;28;92521;-72
2022/05/27 09:32:49;;;;;;;8.73;2.35;;;21.00;57.40;;;;;;4955687;28;93258;-72
2022/05/27 09:35:25;;;;;;;9.35;3.85;;;21.10;58.80;;;;;;4955910;28;92970;-72
2022/05/27 09:38:12;;;;;;;9.27;3.83;;;21.00;58.20;;;;;;4955839;28;92360;-72
2022/05/27 09:40:54;;;;;;;7.57;3.13;;;21.00;59.70;;;;;;4956132;28;92394;-72
2022/05/27 09:43:43;;;;;;;9.77;3.25;;;20.80;59.00;;;;;;4957888;28;95549;-73
2022/05/27 09:46:13;;;;;;;8.45;3.58;;;20.90;58.60;;;;;;4957620;28;95316;-72
2022/05/27 09:48:40;;;;;;;8.25;3.78;;;20.80;59.20;;;;;;4958195;28;92574;-72
2022/05/27 09:51:12;;;;;;;7.82;2.45;;;21.00;59.70;;;;;;4957279;28;92534;-72
2022/05/27 09:53:43;;;;;;;7.18;2.65;;;21.10;59.50;;;;;;4957532;28;94246;-72
2022/05/27 09:56:13;;;;;;;6.82;2.40;;;21.10;57.90;;;;;;4979952;28;95564;-72
2022/05/27 09:58:43;;;;;;;7.68;3.47;;;21.20;57.70;;;;;;4998214;28;92482;-72
2022/05/27 10:01:24;;;;;;;6.13;2.00;;;21.00;58.20;;;;;;4998722;28;91885;-72
2022/05/27 10:04:04;;;;;;;6.85;3.30;;;21.20;59.70;;;;;;4997894;28;93464;-72
2022/05/27 10:06:34;;;;;;;7.50;2.70;;;21.20;59.10;;;;;;4997979;28;94187;-72
2022/05/27 10:09:05;;;;;;;6.90;2.58;;;21.10;57.90;;;;;;4978792;28;95254;-72
2022/05/27 10:11:34;;;;;;;8.60;5.07;;;21.40;59.70;;;;;;4997973;28;92491;-72
2022/05/27 10:14:28;;;;;;;6.10;1.95;;;21.50;57.60;;;;;;4996170;28;95978;-72
2022/05/27 10:17:10;;;;;;;5.70;2.10;;;21.70;57.00;;;;;;4997820;28;92967;-72
2022/05/27 10:19:44;;;;;;;9.60;2.88;;;21.50;56.90;;;;;;4998281;28;92470;-72
2022/05/27 10:22:28;;;;;;;7.57;3.05;;;21.30;57.50;;;;;;4997625;28;92407;-72
2022/05/27 10:25:13;;;;;;;9.50;3.00;;;21.40;57.90;;;;;;4979712;28;96208;-72
2022/05/27 10:27:51;;;;;;;8.60;2.40;;;21.40;58.60;;;;;;4998313;28;92982;-72
2022/05/27 10:30:30;;;;;;;8.40;2.90;;;21.40;58.70;;;;;;4998253;28;92399;-72
2022/05/27 10:33:17;;;;;;;6.20;2.30;;;21.50;58.00;;;;;;4997254;28;92494;-72
2022/05/27 10:35:46;;;;;;;8.23;3.75;;;21.20;56.70;;;;;;4994764;28;98293;-72
2022/05/27 10:38:16;;;;;;;8.88;2.72;;;20.90;57.60;;;;;;4979129;28;96414;-72
2022/05/27 10:41:01;;;;;;;10.27;3.80;;;21.00;58.90;;;;;;4997710;28;93041;-72
2022/05/27 10:43:34;;;;;;;5.20;2.17;;;21.20;58.50;;;;;;4979655;28;92774;-72
2022/05/27 10:46:07;;;;;;;7.20;2.15;;;21.20;57.70;;;;;;4979155;28;95929;-72
2022/05/27 10:48:34;;;;;;;5.78;3.08;;;21.00;58.10;;;;;;4997734;28;93238;-72
2022/05/27 10:51:04;;;;;;;10.18;2.60;;;21.00;58.60;;;;;;4963045;28;92547;-72
2022/05/27 10:53:40;;;;;;;10.45;3.92;;;21.30;58.90;;;;;;4979546;28;91691;-72
2022/05/27 10:56:17;;;;;;;7.63;3.45;;;21.40;57.00;;;;;;4997238;28;93265;-72
2022/05/27 11:02:39;;;;;;;9.65;3.95;;;21.40;58.20;;;;;;4978028;28;94884;-73
2022/05/27 11:05:09;;;;;;;6.03;2.65;;;21.30;58.70;;;;;;4997053;28;93028;-73
2022/05/27 11:08:02;;;;;;;10.02;3.28;;;21.30;58.40;;;;;;4979319;28;92855;-73
2022/05/27 11:10:43;;;;;;;8.48;2.70;;;21.20;57.80;;;;;;4978867;28;95448;-73
2022/05/27 11:16:52;;;;;;;11.00;3.45;;;21.60;55.60;;;;;;4997071;28;92631;-73
2022/05/27 11:19:48;;;;;;;10.27;3.47;;;21.60;57.20;;;;;;4978571;28;95962;-73
2022/05/27 11:22:37;;;;;;;6.63;2.17;;;21.40;56.50;;;;;;4979201;28;96418;-73
2022/05/27 11:25:37;;;;;;;5.93;1.73;;;20.90;57.00;;;;;;4978771;28;92960;-73
2022/05/27 11:28:32;;;;;;;9.00;2.63;;;20.70;58.50;;;;;;4978155;28;92654;-73
2022/05/27 11:31:18;;;;;;;7.45;2.92;;;20.40;59.80;;;;;;4995869;28;95711;-73
2022/05/27 11:34:04;;;;;;;7.55;2.15;;;20.50;60.60;;;;;;4996656;28;94085;-73
2022/05/27 11:36:56;;;;;;;8.93;3.25;;;20.60;58.80;;;;;;4979317;28;92486;-73
2022/05/27 11:39:47;;;;;;;11.00;2.80;;;20.70;58.90;;;;;;4979029;28;93022;-73
2022/05/27 11:42:52;;;;;;;9.38;2.28;;;20.90;59.10;;;;;;4996412;28;93170;-73
2022/05/27 11:45:21;;;;;;;7.97;3.45;;;21.20;60.40;;;;;;4996362;28;93004;-73
2022/05/27 11:48:14;;;;;;;10.93;2.47;;;20.90;59.20;;;;;;4996068;28;100724;-73
2022/05/27 11:51:07;;;;;;;9.23;3.70;;;20.90;59.40;;;;;;4978524;28;91712;-73
2022/05/27 11:53:55;;;;;;;8.15;3.75;;;20.80;59.10;;;;;;4996260;28;93334;-73
2022/05/27 11:56:30;;;;;;;10.77;2.30;;;20.80;59.00;;;;;;4996159;28;93017;-73
2022/05/27 11:59:06;;;;;;;9.02;2.85;;;20.70;60.40;;;;;;4995282;28;95536;-73
2022/05/27 12:01:59;;;;;;;9.25;2.83;;;20.70;61.40;;;;;;4996430;28;92450;-73
2022/05/27 12:04:58;;;;;;;5.97;2.10;;;20.80;61.90;;;;;;4977266;28;93350;-73
2022/05/27 12:07:58;;;;;;;9.02;2.72;;;21.00;60.70;;;;;;4995788;28;94437;-73
2022/05/27 12:10:54;;;;;;;8.95;2.83;;;20.80;58.70;;;;;;4975785;28;92466;-73
2022/05/27 12:13:44;;;;;;;8.55;2.67;;;20.60;59.90;;;;;;4994270;28;92867;-73
2022/05/27 12:16:18;;;;;;;9.95;3.50;;;20.70;60.70;;;;;;4978136;28;93275;-73
2022/05/27 12:19:32;;;;;;;7.35;2.20;;;20.70;60.20;;;;;;4996690;28;92948;-73
2022/05/27 12:22:15;;;;;;;8.15;3.50;;;20.60;59.40;;;;;;4978458;28;92534;-73
2022/05/27 12:24:51;;;;;;;9.27;2.85;;;20.40;60.90;;;;;;4977879;28;92496;-73
2022/05/27 12:27:19;;;;;;;9.63;2.60;;;20.40;62.00;;;;;;4994578;28;95754;-73
2022/05/27 12:29:49;;;;;;;12.50;4.30;;;20.60;62.10;;;;;;4977647;28;95502;-73
2022/05/27 12:32:19;;;;;;;10.15;3.88;;;20.60;61.50;;;;;;4995912;28;92413;-73
2022/05/27 12:34:51;;;;;;;11.80;2.30;;;20.70;61.80;;;;;;4995941;28;92909;-73
2022/05/27 12:37:23;;;;;;;12.25;4.38;;;20.70;61.50;;;;;;4945600;28;95806;-73
2022/05/27 12:40:11;;;;;;;11.38;3.10;;;20.80;61.30;;;;;;4995610;28;93115;-73
2022/05/27 12:42:41;;;;;;;12.02;2.85;;;20.90;62.30;;;;;;4995828;28;92684;-73
2022/05/27 12:45:33;;;;;;;10.80;2.67;;;21.00;61.50;;;;;;4978253;28;102358;-73
2022/05/27 12:48:00;;;;;;;7.03;3.58;;;21.10;61.30;;;;;;4996061;28;93307;-73
2022/05/27 12:50:34;;;;;;;9.27;2.80;;;21.00;61.20;;;;;;4961203;28;93010;-73
2022/05/27 12:53:34;;;;;;;10.13;2.85;;;21.00;60.50;;;;;;4994609;28;94839;-72
2022/05/27 13:02:19;;;;;;;8.68;3.50;;;21.20;59.60;;;;;;4977364;28;95670;-72
2022/05/27 13:04:57;;;;;;;12.20;4.07;;;21.30;59.00;;;;;;4995407;28;92478;-72
2022/05/27 13:07:33;;;;;;;10.05;2.60;;;21.30;58.50;;;;;;4994967;28;92439;-72
2022/05/27 13:10:20;;;;;;;9.40;2.58;;;21.30;59.60;;;;;;4977248;28;95734;-72
2022/05/27 13:13:08;;;;;;;12.57;2.80;;;21.40;59.30;;;;;;4970237;28;95493;-72
2022/05/27 13:16:01;;;;;;;9.45;2.45;;;21.30;59.60;;;;;;4979819;28;92716;-72
2022/05/27 13:18:31;;;;;;;10.85;2.63;;;21.00;59.00;;;;;;4980642;28;92459;-72
2022/05/27 13:21:31;;;;;;;9.02;2.72;;;20.70;59.50;;;;;;4979354;28;98424;-72
2022/05/27 13:24:06;;;;;;;9.60;3.70;;;20.70;60.00;;;;;;4980995;28;95190;-72
2022/05/27 13:26:53;;;;;;;7.15;2.53;;;20.70;61.10;;;;;;4998967;28;92502;-72
2022/05/27 13:29:28;;;;;;;11.00;3.17;;;20.80;61.50;;;;;;4987820;28;92549;-72
2022/05/27 13:32:03;;;;;;;8.45;3.65;;;20.70;61.20;;;;;;4998601;28;93096;-72
2022/05/27 13:34:44;;;;;;;7.35;2.47;;;20.60;60.50;;;;;;4979681;28;96916;-72
2022/05/27 13:37:29;;;;;;;10.25;2.60;;;20.60;61.10;;;;;;4998987;28;92422;-72
2022/05/27 13:40:03;;;;;;;8.48;3.30;;;20.70;61.20;;;;;;4999153;28;91804;-72
2022/05/27 13:42:33;;;;;;;9.75;3.80;;;20.70;61.50;;;;;;4980428;28;93215;-72
2022/05/27 13:45:32;;;;;;;8.98;2.20;;;20.50;61.90;;;;;;4998549;28;93688;-72
2022/05/27 13:48:22;;;;;;;8.93;3.63;;;20.60;61.80;;;;;;4996209;28;94884;-72
2022/05/27 13:50:52;;;;;;;8.40;2.55;;;20.60;62.50;;;;;;4998303;28;92444;-72
2022/05/27 13:53:19;;;;;;;10.25;2.25;;;20.30;62.90;;;;;;4964355;28;92433;-72
2022/05/27 13:55:52;;;;;;;11.05;3.47;;;20.10;62.30;;;;;;4997798;28;92901;-72